createdAt,value
2019-03-01T00:02:00.515Z,98538.42
2019-03-01T00:05:19.800Z,98537.61
2019-03-01T00:08:24.933Z,98537.89
2019-03-01T00:11:41.781Z,98534.19
2019-03-01T00:15:01.566Z,98528.55
2019-03-01T00:18:13.154Z,98529.36
2019-03-01T00:21:35.388Z,98517.61
2019-03-01T00:24:56.739Z,98523.55
2019-03-01T00:28:12.428Z,98515.52
2019-03-01T00:31:44.877Z,98515.55
2019-03-01T00:35:16.250Z,98505.38
2019-03-01T00:38:32.056Z,98502.48
2019-03-01T00:42:09.234Z,98497.70
2019-03-01T00:44:41.903Z,98488.09
2019-03-01T00:47:09.828Z,98488.89
2019-03-01T00:49:37.834Z,98476.61
2019-03-01T00:52:06.421Z,98472.59
2019-03-01T00:54:34.358Z,98470.17
2019-03-01T00:57:04.311Z,98474.18
2019-03-01T00:59:31.997Z,98470.73
2019-03-01T01:01:59.576Z,98468.86
2019-03-01T01:04:27.802Z,98463.52
2019-03-01T01:06:55.834Z,98460.56
2019-03-01T01:09:24.013Z,98456.83
2019-03-01T01:11:51.802Z,98451.76
2019-03-01T01:14:19.491Z,98445.10
2019-03-01T01:16:47.513Z,98443.20
2019-03-01T01:19:16.079Z,98432.50
2019-03-01T01:21:43.552Z,98429.33
2019-03-01T01:24:11.231Z,98424.52
2019-03-01T01:26:39.011Z,98425.05
2019-03-01T01:29:06.682Z,98421.88
2019-03-01T01:31:34.712Z,98420.25
2019-03-01T01:34:02.720Z,98423.20
2019-03-01T01:36:30.493Z,98422.43
2019-03-01T01:38:58.161Z,98424.58
2019-03-01T01:41:27.064Z,98417.64
2019-03-01T01:43:55.254Z,98416.84
2019-03-01T01:46:23.118Z,98409.09
2019-03-01T01:48:51.471Z,98412.58
2019-03-01T01:51:19.546Z,98410.19
2019-03-01T01:53:47.534Z,98408.59
2019-03-01T01:56:15.811Z,98412.33
2019-03-01T01:58:44.157Z,98398.19
2019-03-01T02:01:12.739Z,98403.53
2019-03-01T02:03:41.155Z,98397.69
2019-03-01T02:06:08.957Z,98401.95
2019-03-01T02:08:36.715Z,98397.94
2019-03-01T02:11:05.175Z,98405.70
2019-03-01T02:13:32.900Z,98409.19
2019-03-01T02:16:01.006Z,98400.11
2019-03-01T02:18:29.563Z,98393.15
2019-03-01T02:20:57.471Z,98397.44
2019-03-01T02:23:25.767Z,98387.02
2019-03-01T02:25:55.360Z,98386.22
2019-03-01T02:28:23.614Z,98375.80
2019-03-01T02:30:52.758Z,98374.22
2019-03-01T02:33:20.461Z,98375.00
2019-03-01T02:35:48.310Z,98367.25
2019-03-01T02:38:16.450Z,98366.48
2019-03-01T02:40:45.018Z,98362.47
2019-03-01T02:43:13.469Z,98360.60
2019-03-01T02:45:41.431Z,98355.78
2019-03-01T02:48:27.570Z,98355.50
2019-03-01T02:50:55.519Z,98347.52
2019-03-01T02:53:24.064Z,98344.06
2019-03-01T02:55:51.895Z,98346.22
2019-03-01T02:58:19.903Z,98349.41
2019-03-01T03:00:47.775Z,98348.08
2019-03-01T03:03:15.511Z,98343.29
2019-03-01T03:06:11.361Z,98352.38
2019-03-01T03:08:39.101Z,98350.53
2019-03-01T03:11:08.092Z,98352.68
2019-03-01T03:13:36.245Z,98348.14
2019-03-01T03:16:04.584Z,98346.78
2019-03-01T03:18:33.336Z,98345.16
2019-03-01T03:21:01.385Z,98337.73
2019-03-01T03:23:29.230Z,98333.41
2019-03-01T03:25:56.993Z,98328.34
2019-03-01T03:28:24.912Z,98318.22
2019-03-01T03:30:53.156Z,98325.98
2019-03-01T03:33:21.731Z,98323.59
2019-03-01T03:35:49.894Z,98328.66
2019-03-01T03:38:18.445Z,98328.91
2019-03-01T03:40:46.275Z,98331.33
2019-03-01T03:43:14.102Z,98334.00
2019-03-01T03:45:41.915Z,98331.05
2019-03-01T03:48:09.633Z,98323.59
2019-03-01T03:50:37.529Z,98325.21
2019-03-01T03:53:06.168Z,98322.54
2019-03-01T03:55:35.873Z,98313.19
2019-03-01T03:58:03.777Z,98305.97
2019-03-01T04:00:31.784Z,98301.97
2019-03-01T04:03:00.603Z,98297.70
2019-03-01T04:05:29.067Z,98302.22
2019-03-01T04:07:57.113Z,98289.41
2019-03-01T04:10:24.826Z,98288.08
2019-03-01T04:12:53.356Z,98280.62
2019-03-01T04:15:21.162Z,98275.00
2019-03-01T04:17:49.002Z,98271.27
2019-03-01T04:20:16.718Z,98261.91
2019-03-01T04:22:45.426Z,98264.63
2019-03-01T04:25:13.793Z,98261.14
2019-03-01T04:27:41.510Z,98257.66
2019-03-01T04:30:13.002Z,98256.60
2019-03-01T04:32:41.214Z,98252.31
2019-03-01T04:35:09.763Z,98249.12
2019-03-01T04:37:37.779Z,98248.59
2019-03-01T04:40:06.968Z,98242.19
2019-03-01T04:42:35.127Z,98244.05
2019-03-01T04:45:03.201Z,98244.58
2019-03-01T04:47:32.016Z,98231.22
2019-03-01T04:50:01.095Z,98236.56
2019-03-01T04:52:34.632Z,98225.87
2019-03-01T04:55:02.816Z,98223.77
2019-03-01T04:57:30.616Z,98228.83
2019-03-01T04:59:58.852Z,98228.34
2019-03-01T05:02:27.128Z,98228.58
2019-03-01T05:04:55.124Z,98226.72
2019-03-01T05:07:23.000Z,98234.21
2019-03-01T05:09:51.430Z,98229.67
2019-03-01T05:12:19.762Z,98228.91
2019-03-01T05:14:48.821Z,98220.64
2019-03-01T05:17:17.491Z,98216.87
2019-03-01T05:19:45.754Z,98220.05
2019-03-01T05:22:13.935Z,98218.22
2019-03-01T05:24:43.742Z,98214.45
2019-03-01T05:27:12.592Z,98218.98
2019-03-01T05:29:41.742Z,98213.12
2019-03-01T05:32:09.774Z,98209.39
2019-03-01T05:34:37.753Z,98210.20
2019-03-01T05:37:06.241Z,98209.11
2019-03-01T05:39:33.996Z,98212.87
2019-03-01T05:42:02.802Z,98200.04
2019-03-01T05:44:31.056Z,98197.92
2019-03-01T05:46:59.029Z,98197.65
2019-03-01T05:49:27.124Z,98210.77
2019-03-01T05:51:55.101Z,98217.20
2019-03-01T05:54:24.262Z,98234.00
2019-03-01T05:56:54.893Z,98228.94
2019-03-01T05:59:25.806Z,98229.78
2019-03-01T06:02:44.733Z,98229.50
2019-03-01T06:05:20.959Z,98229.46
2019-03-01T06:08:45.762Z,98223.34
2019-03-01T06:11:56.136Z,98228.94
2019-03-01T06:15:25.627Z,98228.30
2019-03-01T06:19:05.891Z,98227.88
2019-03-01T06:22:50.335Z,98220.15
2019-03-01T06:25:46.785Z,98212.94
2019-03-01T06:29:27.578Z,98205.42
2019-03-01T06:32:37.421Z,98211.50
2019-03-01T06:36:15.747Z,98231.50
2019-03-01T06:39:53.004Z,98230.17
2019-03-01T06:42:54.605Z,98226.61
2019-03-01T06:46:05.021Z,98233.57
2019-03-01T06:48:50.472Z,98232.48
2019-03-01T06:51:29.137Z,98232.73
2019-03-01T06:53:59.230Z,98228.72
2019-03-01T06:56:31.716Z,98226.13
2019-03-01T06:59:03.027Z,98222.39
2019-03-01T07:01:34.366Z,98227.77
2019-03-01T07:04:06.753Z,98228.83
2019-03-01T07:06:34.592Z,98228.83
2019-03-01T07:09:02.677Z,98225.66
2019-03-01T07:11:30.390Z,98230.48
2019-03-01T07:13:58.379Z,98229.67
2019-03-01T07:16:26.322Z,98227.31
2019-03-01T07:18:54.572Z,98232.37
2019-03-01T07:21:22.548Z,98231.61
2019-03-01T07:23:50.363Z,98228.69
2019-03-01T07:26:18.060Z,98225.77
2019-03-01T07:28:45.839Z,98229.78
2019-03-01T07:31:14.038Z,98228.73
2019-03-01T07:33:45.881Z,98231.12
2019-03-01T07:36:13.889Z,98230.06
2019-03-01T07:38:41.821Z,98232.45
2019-03-01T07:41:10.372Z,98230.34
2019-03-01T07:43:40.508Z,98230.06
2019-03-01T07:46:09.365Z,98236.73
2019-03-01T07:48:37.715Z,98236.45
2019-03-01T07:51:09.219Z,98239.91
2019-03-01T07:53:41.838Z,98238.28
2019-03-01T07:56:07.374Z,98236.45
2019-03-01T07:58:35.181Z,98236.73
2019-03-01T08:01:02.905Z,98236.49
2019-03-01T08:03:30.974Z,98229.01
2019-03-01T08:05:58.774Z,98224.47
2019-03-01T08:08:27.543Z,98220.47
2019-03-01T08:10:57.397Z,98216.45
2019-03-01T08:13:26.887Z,98214.62
2019-03-01T08:15:55.145Z,98215.13
2019-03-01T08:18:23.052Z,98208.69
2019-03-01T08:20:50.857Z,98212.17
2019-03-01T08:23:18.573Z,98210.80
2019-03-01T08:25:46.448Z,98216.14
2019-03-01T08:28:14.194Z,98216.91
2019-03-01T08:30:45.868Z,98210.52
2019-03-01T08:33:14.415Z,98214.52
2019-03-01T08:35:45.190Z,98209.11
2019-03-01T08:38:13.573Z,98206.96
2019-03-01T08:40:43.263Z,98207.45
2019-03-01T08:43:13.190Z,98206.64
2019-03-01T08:45:40.966Z,98206.64
2019-03-01T08:48:09.422Z,98207.98
2019-03-01T08:50:39.327Z,98213.84
2019-03-01T08:53:07.918Z,98214.59
2019-03-01T08:55:38.907Z,98213.45
2019-03-01T08:58:07.116Z,98218.52
2019-03-01T09:00:36.830Z,98211.84
2019-03-01T09:03:11.706Z,98215.07
2019-03-01T09:05:39.446Z,98215.52
2019-03-01T09:08:07.331Z,98214.70
2019-03-01T09:10:35.700Z,98212.31
2019-03-01T09:13:03.407Z,98207.73
2019-03-01T09:15:31.268Z,98213.08
2019-03-01T09:17:59.379Z,98216.52
2019-03-01T09:20:28.529Z,98207.73
2019-03-01T09:22:56.941Z,98214.66
2019-03-01T09:25:25.508Z,98218.67
2019-03-01T09:27:53.823Z,98214.66
2019-03-01T09:30:23.407Z,98223.45
2019-03-01T09:32:51.574Z,98222.16
2019-03-01T09:35:45.630Z,98225.92
2019-03-01T09:38:14.425Z,98218.22
2019-03-01T09:40:42.221Z,98219.28
2019-03-01T09:43:11.011Z,98219.56
2019-03-01T09:45:38.964Z,98217.66
2019-03-01T09:48:08.683Z,98221.66
2019-03-01T09:50:38.372Z,98220.33
2019-03-01T09:53:06.622Z,98224.58
2019-03-01T09:55:34.720Z,98224.58
2019-03-01T09:58:04.974Z,98223.00
2019-03-01T10:00:33.545Z,98222.12
2019-03-01T10:03:01.685Z,98226.94
2019-03-01T10:05:30.173Z,98230.63
2019-03-01T10:07:58.350Z,98233.74
2019-03-01T10:10:27.718Z,98237.02
2019-03-01T10:12:56.536Z,98234.91
2019-03-01T10:15:25.208Z,98231.79
2019-03-01T10:17:53.585Z,98231.47
2019-03-01T10:20:21.576Z,98232.56
2019-03-01T10:22:49.280Z,98229.89
2019-03-01T10:25:17.380Z,98226.94
2019-03-01T10:27:45.450Z,98234.95
2019-03-01T10:30:17.221Z,98238.72
2019-03-01T10:32:45.609Z,98230.13
2019-03-01T10:35:13.742Z,98231.67
2019-03-01T10:37:41.818Z,98235.36
2019-03-01T10:40:12.758Z,98233.17
2019-03-01T10:42:40.666Z,98232.40
2019-03-01T10:45:13.146Z,98242.81
2019-03-01T10:47:41.497Z,98228.15
2019-03-01T10:50:09.669Z,98239.41
2019-03-01T10:52:38.830Z,98236.78
2019-03-01T10:55:09.551Z,98240.78
2019-03-01T10:57:38.207Z,98239.20
2019-03-01T11:00:14.901Z,98244.84
2019-03-01T11:02:43.515Z,98234.50
2019-03-01T11:05:11.396Z,98243.90
2019-03-01T11:07:40.051Z,98244.11
2019-03-01T11:10:10.198Z,98242.52
2019-03-01T11:12:37.864Z,98252.12
2019-03-01T11:15:06.553Z,98252.97
2019-03-01T11:17:34.500Z,98253.17
2019-03-01T11:20:02.665Z,98254.97
2019-03-01T11:22:31.252Z,98262.01
2019-03-01T11:24:59.145Z,98262.01
2019-03-01T11:27:27.164Z,98259.62
2019-03-01T11:29:55.205Z,98260.98
2019-03-01T11:32:23.193Z,98265.81
2019-03-01T11:34:52.773Z,98266.87
2019-03-01T11:37:20.542Z,98268.48
2019-03-01T11:39:48.362Z,98272.22
2019-03-01T11:42:16.914Z,98273.03
2019-03-01T11:44:44.587Z,98275.95
2019-03-01T11:47:12.491Z,98281.30
2019-03-01T11:49:40.452Z,98277.03
2019-03-01T11:52:08.159Z,98281.30
2019-03-01T11:54:36.579Z,98277.31
2019-03-01T11:57:04.609Z,98283.72
2019-03-01T11:59:32.966Z,98279.70
2019-03-01T12:02:01.065Z,98280.02
2019-03-01T12:04:29.560Z,98281.61
2019-03-01T12:06:57.938Z,98278.16
2019-03-01T12:09:25.966Z,98273.59
2019-03-01T12:11:54.680Z,98277.28
2019-03-01T12:14:23.947Z,98274.61
2019-03-01T12:16:51.997Z,98285.58
2019-03-01T12:19:21.186Z,98284.52
2019-03-01T12:21:49.502Z,98284.24
2019-03-01T12:24:17.357Z,98283.97
2019-03-01T12:26:47.697Z,98283.97
2019-03-01T12:29:15.485Z,98283.97
2019-03-01T12:31:43.749Z,98286.91
2019-03-01T12:34:11.827Z,98284.48
2019-03-01T12:36:40.890Z,98277.20
2019-03-01T12:39:09.912Z,98292.64
2019-03-01T12:41:38.155Z,98287.78
2019-03-01T12:44:06.141Z,98290.95
2019-03-01T12:46:34.235Z,98291.79
2019-03-01T12:49:02.036Z,98288.88
2019-03-01T12:51:30.853Z,98288.06
2019-03-01T12:53:59.121Z,98290.95
2019-03-01T12:56:28.192Z,98288.76
2019-03-01T12:58:56.396Z,98290.38
2019-03-01T13:01:24.771Z,98289.03
2019-03-01T13:03:53.228Z,98284.75
2019-03-01T13:06:21.628Z,98282.06
2019-03-01T13:08:51.513Z,98281.47
2019-03-01T13:11:20.252Z,98277.21
2019-03-01T13:13:48.749Z,98285.02
2019-03-01T13:16:16.963Z,98282.35
2019-03-01T13:18:47.619Z,98282.03
2019-03-01T13:21:15.463Z,98279.03
2019-03-01T13:23:45.402Z,98286.81
2019-03-01T13:26:13.869Z,98292.37
2019-03-01T13:28:43.878Z,98290.98
2019-03-01T13:31:12.271Z,98289.03
2019-03-01T13:33:43.302Z,98292.97
2019-03-01T13:36:13.276Z,98292.73
2019-03-01T13:38:41.576Z,98293.53
2019-03-01T13:41:10.642Z,98294.31
2019-03-01T13:43:39.126Z,98297.02
2019-03-01T13:46:07.800Z,98292.48
2019-03-01T13:48:35.696Z,98301.52
2019-03-01T13:51:05.820Z,98302.61
2019-03-01T13:53:34.276Z,98306.06
2019-03-01T13:56:02.457Z,98297.45
2019-03-01T13:58:30.712Z,98297.12
2019-03-01T14:00:59.218Z,98293.12
2019-03-01T14:03:28.060Z,98298.41
2019-03-01T14:05:56.499Z,98298.03
2019-03-01T14:08:25.070Z,98296.13
2019-03-01T14:10:53.262Z,98294.45
2019-03-01T14:13:21.256Z,98302.48
2019-03-01T14:15:50.440Z,98298.23
2019-03-01T14:18:18.829Z,98297.66
2019-03-01T14:20:47.618Z,98301.95
2019-03-01T14:23:15.343Z,98301.72
2019-03-01T14:25:43.594Z,98307.41
2019-03-01T14:28:12.183Z,98308.02
2019-03-01T14:30:39.950Z,98309.89
2019-03-01T14:33:07.415Z,98308.30
2019-03-01T14:35:35.539Z,98309.13
2019-03-01T14:38:03.524Z,98310.72
2019-03-01T14:40:31.795Z,98313.43
2019-03-01T14:42:59.855Z,98314.52
2019-03-01T14:45:28.049Z,98314.25
2019-03-01T14:47:55.895Z,98313.23
2019-03-01T14:50:24.183Z,98316.43
2019-03-01T14:52:56.663Z,98318.59
2019-03-01T14:55:26.680Z,98316.19
2019-03-01T14:58:15.084Z,98324.45
2019-03-01T15:01:06.886Z,98320.44
2019-03-01T15:03:39.102Z,98326.61
2019-03-01T15:06:08.945Z,98321.27
2019-03-01T15:08:40.509Z,98331.19
2019-03-01T15:11:15.350Z,98328.52
2019-03-01T15:13:44.081Z,98322.95
2019-03-01T15:16:12.022Z,98329.38
2019-03-01T15:18:41.089Z,98330.22
2019-03-01T15:21:10.535Z,98333.42
2019-03-01T15:23:39.071Z,98339.63
2019-03-01T15:26:07.741Z,98341.52
2019-03-01T15:28:55.406Z,98346.63
2019-03-01T15:31:23.017Z,98354.16
2019-03-01T15:33:52.530Z,98348.32
2019-03-01T15:36:20.276Z,98361.42
2019-03-01T15:38:48.684Z,98353.35
2019-03-01T15:41:17.092Z,98358.21
2019-03-01T15:43:45.781Z,98358.25
2019-03-01T15:46:15.217Z,98369.23
2019-03-01T15:48:43.600Z,98366.52
2019-03-01T15:51:12.468Z,98375.07
2019-03-01T15:53:40.665Z,98372.67
2019-03-01T15:56:08.656Z,98375.59
2019-03-01T15:58:36.353Z,98378.34
2019-03-01T16:01:11.114Z,98382.11
2019-03-01T16:03:38.635Z,98380.23
2019-03-01T16:06:10.359Z,98385.87
2019-03-01T16:08:37.000Z,98387.73
2019-03-01T16:11:09.298Z,98392.84
2019-03-01T16:13:36.749Z,98393.12
2019-03-01T16:16:05.215Z,98399.80
2019-03-01T16:18:35.304Z,98404.87
2019-03-01T16:21:05.211Z,98408.07
2019-03-01T16:23:32.922Z,98413.38
2019-03-01T16:26:00.626Z,98409.16
2019-03-01T16:28:31.283Z,98417.46
2019-03-01T16:30:58.644Z,98419.86
2019-03-01T16:33:28.976Z,98416.09
2019-03-01T16:35:56.086Z,98420.35
2019-03-01T16:38:24.738Z,98417.39
2019-03-01T16:40:53.401Z,98415.47
2019-03-01T16:43:21.179Z,98413.00
2019-03-01T16:45:53.366Z,98421.03
2019-03-01T16:48:22.216Z,98415.64
2019-03-01T16:50:50.599Z,98422.27
2019-03-01T16:53:19.077Z,98420.08
2019-03-01T16:55:46.862Z,98423.39
2019-03-01T16:58:15.418Z,98422.89
2019-03-01T17:00:43.885Z,98427.72
2019-03-01T17:03:16.558Z,98432.05
2019-03-01T17:05:42.694Z,98435.27
2019-03-01T17:08:11.753Z,98444.91
2019-03-01T17:10:40.946Z,98450.30
2019-03-01T17:13:10.921Z,98443.14
2019-03-01T17:15:38.714Z,98444.23
2019-03-01T17:18:11.264Z,98449.30
2019-03-01T17:20:38.563Z,98454.11
2019-03-01T17:23:06.595Z,98460.27
2019-03-01T17:25:36.610Z,98458.94
2019-03-01T17:28:04.357Z,98461.30
2019-03-01T17:30:32.407Z,98462.64
2019-03-01T17:33:00.475Z,98461.55
2019-03-01T17:35:28.951Z,98463.61
2019-03-01T17:37:57.124Z,98468.17
2019-03-01T17:40:25.132Z,98474.83
2019-03-01T17:42:56.256Z,98473.53
2019-03-01T17:45:23.401Z,98473.03
2019-03-01T17:47:51.232Z,98480.27
2019-03-01T17:50:19.484Z,98482.97
2019-03-01T17:52:48.096Z,98482.44
2019-03-01T17:55:16.142Z,98496.90
2019-03-01T17:57:44.125Z,98503.86
2019-03-01T18:00:15.273Z,98503.55
2019-03-01T18:02:43.106Z,98505.70
2019-03-01T18:05:11.374Z,98508.07
2019-03-01T18:07:39.789Z,98515.56
2019-03-01T18:10:09.392Z,98520.69
2019-03-01T18:12:37.151Z,98522.58
2019-03-01T18:15:08.621Z,98524.19
2019-03-01T18:17:37.631Z,98519.38
2019-03-01T18:20:09.652Z,98521.77
2019-03-01T18:22:38.551Z,98516.95
2019-03-01T18:25:09.024Z,98528.59
2019-03-01T18:27:37.231Z,98528.32
2019-03-01T18:30:16.179Z,98535.73
2019-03-01T18:32:45.160Z,98540.52
2019-03-01T18:35:13.570Z,98548.55
2019-03-01T18:37:42.940Z,98556.58
2019-03-01T18:40:13.425Z,98557.33
2019-03-01T18:42:41.341Z,98555.99
2019-03-01T18:45:12.809Z,98558.89
2019-03-01T18:47:43.621Z,98558.11
2019-03-01T18:50:18.709Z,98566.64
2019-03-01T18:52:49.676Z,98565.58
2019-03-01T18:55:18.493Z,98573.27
2019-03-01T18:57:47.166Z,98575.14
2019-03-01T19:00:21.486Z,98575.66
2019-03-01T19:02:49.354Z,98589.58
2019-03-01T19:05:18.774Z,98593.59
2019-03-01T19:07:47.527Z,98604.55
2019-03-01T19:10:19.203Z,98601.84
2019-03-01T19:12:48.564Z,98600.50
2019-03-01T19:15:17.247Z,98619.45
2019-03-01T19:17:45.731Z,98607.91
2019-03-01T19:20:17.380Z,98623.48
2019-03-01T19:22:45.708Z,98623.08
2019-03-01T19:25:14.429Z,98624.16
2019-03-01T19:27:43.592Z,98626.84
2019-03-01T19:30:14.617Z,98627.31
2019-03-01T19:32:42.290Z,98625.01
2019-03-01T19:35:10.065Z,98631.73
2019-03-01T19:37:37.880Z,98633.94
2019-03-01T19:40:10.902Z,98640.92
2019-03-01T19:42:38.414Z,98642.02
2019-03-01T19:45:08.029Z,98648.70
2019-03-01T19:47:37.446Z,98647.39
2019-03-01T19:50:09.292Z,98650.83
2019-03-01T19:52:43.383Z,98659.11
2019-03-01T19:55:11.697Z,98651.35
2019-03-01T19:57:40.981Z,98654.56
2019-03-01T20:00:12.778Z,98658.58
2019-03-01T20:02:40.916Z,98656.15
2019-03-01T20:05:11.140Z,98660.70
2019-03-01T20:07:39.168Z,98667.64
2019-03-01T20:10:11.634Z,98670.06
2019-03-01T20:12:40.536Z,98671.41
2019-03-01T20:15:13.643Z,98674.86
2019-03-01T20:17:44.427Z,98683.98
2019-03-01T20:20:12.500Z,98677.29
2019-03-01T20:22:40.312Z,98674.33
2019-03-01T20:25:12.768Z,98677.79
2019-03-01T20:27:40.272Z,98681.30
2019-03-01T20:30:14.921Z,98685.84
2019-03-01T20:32:42.967Z,98681.02
2019-03-01T20:35:12.702Z,98682.89
2019-03-01T20:37:41.062Z,98679.12
2019-03-01T20:40:09.802Z,98688.00
2019-03-01T20:42:38.259Z,98689.05
2019-03-01T20:45:10.903Z,98687.72
2019-03-01T20:47:39.626Z,98688.50
2019-03-01T20:50:08.507Z,98686.66
2019-03-01T20:52:38.075Z,98683.98
2019-03-01T20:55:07.783Z,98688.77
2019-03-01T20:57:37.003Z,98689.05
2019-03-01T21:00:07.952Z,98687.16
2019-03-01T21:02:36.135Z,98690.67
2019-03-01T21:05:05.784Z,98693.06
2019-03-01T21:07:34.419Z,98684.48
2019-03-01T21:10:02.406Z,98692.00
2019-03-01T21:12:33.451Z,98694.95
2019-03-01T21:15:02.114Z,98692.56
2019-03-01T21:17:30.890Z,98688.27
2019-03-01T21:19:58.673Z,98692.77
2019-03-01T21:22:26.752Z,98695.16
2019-03-01T21:24:54.845Z,98691.70
2019-03-01T21:27:25.778Z,98693.57
2019-03-01T21:29:54.039Z,98691.70
2019-03-01T21:32:22.167Z,98698.40
2019-03-01T21:34:50.846Z,98699.73
2019-03-01T21:37:18.643Z,98697.09
2019-03-01T21:39:46.574Z,98690.37
2019-03-01T21:42:16.853Z,98703.50
2019-03-01T21:44:45.636Z,98700.52
2019-03-01T21:47:13.838Z,98703.72
2019-03-01T21:49:41.915Z,98704.00
2019-03-01T21:52:10.191Z,98707.21
2019-03-01T21:54:38.247Z,98710.67
2019-03-01T21:57:06.752Z,98713.07
2019-03-01T21:59:35.423Z,98711.48
2019-03-01T22:02:03.288Z,98703.62
2019-03-01T22:04:34.337Z,98701.80
2019-03-01T22:07:02.763Z,98702.14
2019-03-01T22:09:31.220Z,98700.30
2019-03-01T22:11:59.284Z,98713.70
2019-03-01T22:14:27.794Z,98718.27
2019-03-01T22:16:55.883Z,98716.70
2019-03-01T22:19:23.769Z,98718.81
2019-03-01T22:21:54.646Z,98724.16
2019-03-01T22:24:23.706Z,98728.73
2019-03-01T22:26:52.878Z,98725.79
2019-03-01T22:29:22.567Z,98725.48
2019-03-01T22:31:50.967Z,98725.19
2019-03-01T22:34:19.546Z,98722.80
2019-03-01T22:36:49.499Z,98726.53
2019-03-01T22:39:19.071Z,98719.28
2019-03-01T22:41:48.447Z,98718.75
2019-03-01T22:44:16.675Z,98720.89
2019-03-01T22:46:44.508Z,98715.27
2019-03-01T22:49:12.600Z,98721.95
2019-03-01T22:51:40.559Z,98720.89
2019-03-01T22:54:08.736Z,98719.03
2019-03-01T22:56:36.861Z,98717.44
2019-03-01T22:59:04.794Z,98719.03
2019-03-01T23:01:46.186Z,98724.11
2019-03-01T23:04:14.720Z,98726.78
2019-03-01T23:06:51.247Z,98719.81
2019-03-01T23:09:19.989Z,98722.74
2019-03-01T23:11:48.770Z,98732.95
2019-03-01T23:14:17.457Z,98729.20
2019-03-01T23:16:46.283Z,98729.48
2019-03-01T23:19:16.058Z,98729.73
2019-03-01T23:21:45.155Z,98721.45
2019-03-01T23:24:13.188Z,98729.73
2019-03-01T23:26:41.698Z,98728.40
2019-03-01T23:29:10.170Z,98731.61
2019-03-01T23:31:38.963Z,98730.27
2019-03-01T23:34:08.910Z,98731.86
2019-03-01T23:36:37.320Z,98728.93
2019-03-01T23:39:06.163Z,98728.93
2019-03-01T23:41:34.461Z,98731.33
2019-03-01T23:44:02.709Z,98734.53
2019-03-01T23:46:32.310Z,98729.96
2019-03-01T23:49:06.196Z,98732.62
2019-03-01T23:51:32.020Z,98735.30
2019-03-01T23:54:00.099Z,98733.75
2019-03-01T23:56:29.756Z,98736.20
2019-03-01T23:58:57.994Z,98735.95
